^^
B2 Weather Station Historical Data
 
Daily Summary for August 18, 2018 Units:  English    Metric   Both
Daily Weekly Monthly Yearly Custom
  Current: High: Low: Average:
Temperature: 67.6 °F 68.8 °F 64.4 °F 67.1 °F
Dew Point: 65.5 °F 66.7 °F 62.3 °F 65.1 °F
Humidity: 93% 94% 93% 93%
Wind Speed: 3.5mph 4.6mph 0mph 1.3mph
Wind Gust: 1.3mph 3mph - -
WindNNW - - NNW
Pressure: 29.98 in 29.98 in 29.95 in -
Precipitation: 0 in      
Historical Graphs
 
 
Tabular Data for August 18, 2018
Time Temperature Dew Point Pressure Wind Wind Speed Wind Gust Humidity Rainfall Rate (Hourly) solar
00:04 68.8 °F 66.7 °F 29.96 in Calm     93% 0 in 0.00 W/m2
00:09 68.6 °F 66.5 °F 29.96 in Calm     93% 0 in 0.00 W/m2
00:14 68.3 °F 66.2 °F 29.96 in Calm     93% 0 in 0.00 W/m2
00:19 68.2 °F 66.1 °F 29.96 in Calm     93% 0 in 0.00 W/m2
00:24 68.1 °F 66 °F 29.96 in Calm     93% 0 in 0.00 W/m2
00:29 67.9 °F 65.8 °F 29.96 in Calm     93% 0 in 0.00 W/m2
00:34 67.8 °F 65.7 °F 29.96 in Calm     93% 0 in 0.00 W/m2
00:39 67.8 °F 65.7 °F 29.96 in Calm     93% 0 in 0.00 W/m2
00:44 67.8 °F 65.7 °F 29.96 in Calm     93% 0 in 0.00 W/m2
00:49 67.6 °F 65.5 °F 29.96 in Calm     93% 0 in 0.00 W/m2
00:54 67.6 °F 65.5 °F 29.96 in Calm     93% 0 in 0.00 W/m2
00:59 67.7 °F 65.6 °F 29.96 in Calm     93% 0 in 0.00 W/m2
01:04 67.8 °F 65.7 °F 29.96 in Calm     93% 0 in 0.00 W/m2
01:09 67.7 °F 65.6 °F 29.96 in Calm     93% 0 in 0.00 W/m2
01:14 67.4 °F 65.6 °F 29.96 in Calm     94% 0 in 0.00 W/m2
01:19 67.2 °F 65.1 °F 29.96 in Calm     93% 0 in 0.00 W/m2
01:24 67.4 °F 65.3 °F 29.96 in Calm     93% 0 in 0.00 W/m2
01:29 67.5 °F 65.4 °F 29.96 in Calm     93% 0 in 0.00 W/m2
01:34 67.5 °F 65.4 °F 29.96 in Calm     93% 0 in 0.00 W/m2
01:39 67.4 °F 65.6 °F 29.96 in Calm     94% 0 in 0.00 W/m2
01:44 67.2 °F 65.1 °F 29.96 in Calm     93% 0 in 0.00 W/m2
01:49 67.2 °F 65.1 °F 29.96 in Calm     93% 0 in 0.00 W/m2
01:54 67.6 °F 65.5 °F 29.96 in Calm     93% 0 in 0.00 W/m2
01:59 67.9 °F 65.8 °F 29.95 in Calm     93% 0 in 0.00 W/m2
02:04 68 °F 65.9 °F 29.95 in Calm     93% 0 in 0.00 W/m2
02:09 68.1 °F 66 °F 29.95 in Calm     93% 0 in 0.00 W/m2
02:14 68.2 °F 66.1 °F 29.95 in Calm     93% 0 in 0.00 W/m2
02:19 68.2 °F 66.1 °F 29.95 in North 3.5 mph 1.9 mph 93% 0 in 0.00 W/m2
02:24 68.1 °F 66.3 °F 29.95 in North 2.3 mph   94% 0 in 0.00 W/m2
02:29 68 °F 66.2 °F 29.95 in North 1 mph 0.4 mph 94% 0 in 0.00 W/m2
02:34 68 °F 66.2 °F 29.95 in NNW 2.3 mph 1.1 mph 94% 0 in 0.00 W/m2
02:39 68 °F 66.2 °F 29.96 in Calm     94% 0 in 0.00 W/m2
02:44 68.1 °F 66 °F 29.96 in Calm     93% 0 in 0.00 W/m2
02:49 68 °F 66.2 °F 29.96 in NNW 1.2 mph   94% 0 in 0.00 W/m2
02:54 68.1 °F 66 °F 29.96 in Calm     93% 0 in 0.00 W/m2
02:59 67.6 °F 65.8 °F 29.95 in Calm     94% 0 in 0.00 W/m2
03:04 66.9 °F 64.8 °F 29.96 in Calm     93% 0 in 0.00 W/m2
03:09 66.5 °F 64.4 °F 29.96 in Calm     93% 0 in 0.00 W/m2
03:14 66.2 °F 64.4 °F 29.95 in Calm     94% 0 in 0.00 W/m2
03:19 65.9 °F 64.1 °F 29.96 in Calm     94% 0 in 0.00 W/m2
03:24 65.7 °F 63.6 °F 29.96 in Calm     93% 0 in 0.00 W/m2
03:29 65.4 °F 63.6 °F 29.96 in Calm     94% 0 in 0.00 W/m2
03:34 65.2 °F 63.1 °F 29.96 in Calm     93% 0 in 0.00 W/m2
03:39 65.1 °F 63 °F 29.96 in Calm     93% 0 in 0.00 W/m2
03:44 64.9 °F 62.8 °F 29.96 in Calm     93% 0 in 0.00 W/m2
03:49 64.7 °F 62.9 °F 29.96 in Calm     94% 0 in 0.00 W/m2
03:54 64.6 °F 62.8 °F 29.96 in Calm     94% 0 in 0.00 W/m2
03:59 64.6 °F 62.8 °F 29.96 in Calm     94% 0 in 0.00 W/m2
04:04 64.6 °F 62.8 °F 29.96 in Calm     94% 0 in 0.00 W/m2
04:09 64.4 °F 62.3 °F 29.96 in Calm     93% 0 in 0.00 W/m2
04:14 64.8 °F 62.7 °F 29.96 in Calm   0.5 mph 93% 0 in 0.00 W/m2
04:19 65.6 °F 63.5 °F 29.96 in Calm     93% 0 in 0.00 W/m2
04:24 65.9 °F 63.8 °F 29.96 in NNW 1 mph 0.2 mph 93% 0 in 0.00 W/m2
04:29 66.7 °F 64.6 °F 29.96 in NNW 3.5 mph 0.8 mph 93% 0 in 0.00 W/m2
04:34 67.4 °F 65.3 °F 29.96 in NNW 3.5 mph 1.1 mph 93% 0 in 0.00 W/m2
04:39 67.6 °F 65.5 °F 29.96 in NW 2.3 mph 1.4 mph 93% 0 in 0.00 W/m2
04:44 67.8 °F 65.7 °F 29.96 in NNW 3.5 mph 1.5 mph 93% 0 in 0.00 W/m2
04:49 67.9 °F 65.8 °F 29.96 in NNW 3.5 mph 2.9 mph 93% 0 in 0.00 W/m2
04:54 67.7 °F 65.6 °F 29.96 in NNW 3.5 mph 1.7 mph 93% 0 in 0.00 W/m2
04:59 67.6 °F 65.5 °F 29.96 in NNW 3.5 mph 2.2 mph 93% 0 in 0.00 W/m2
05:04 67.5 °F 65.7 °F 29.96 in NNW 3.5 mph 2.5 mph 94% 0 in 0.00 W/m2
05:09 67.4 °F 65.6 °F 29.96 in NW 2.3 mph 1 mph 94% 0 in 0.00 W/m2
05:14 67.5 °F 65.4 °F 29.96 in NW 3.5 mph 1.2 mph 93% 0 in 0.00 W/m2
05:19 67.4 °F 65.6 °F 29.96 in NW 3.5 mph 1.5 mph 94% 0 in 0.00 W/m2
05:24 67.3 °F 65.5 °F 29.97 in NW 3.5 mph 1.5 mph 94% 0 in 0.00 W/m2
05:29 67.3 °F 65.5 °F 29.96 in NW 3.5 mph 2.2 mph 94% 0 in 0.00 W/m2
05:34 67.2 °F 65.1 °F 29.97 in NW 3 mph 1 mph 93% 0 in 0.00 W/m2
05:39 67.2 °F 65.1 °F 29.97 in NW 3.5 mph 1.4 mph 93% 0 in 0.00 W/m2
05:44 67.2 °F 65.1 °F 29.97 in NW 2.3 mph   93% 0 in 0.00 W/m2
05:49 67.1 °F 65 °F 29.97 in NW 3.5 mph 2.3 mph 93% 0 in 0.00 W/m2
05:54 67.1 °F 65 °F 29.97 in NW 3.5 mph 2 mph 93% 0 in 0.00 W/m2
05:59 67.1 °F 65 °F 29.97 in NNW 3.5 mph 2.3 mph 93% 0 in 0.00 W/m2
06:04 67 °F 64.9 °F 29.97 in NNW 3.5 mph 2 mph 93% 0 in 0.00 W/m2
06:09 66.8 °F 64.7 °F 29.97 in NW 3.5 mph 1.2 mph 93% 0 in 5.00 W/m2
06:14 67 °F 64.9 °F 29.98 in NW 3.5 mph 1.6 mph 93% 0 in 7.00 W/m2
06:19 67.1 °F 65 °F 29.98 in North 4.6 mph 2.3 mph 93% 0 in 11.00 W/m2
06:24 67.1 °F 65 °F 29.98 in NW 3.5 mph 1.4 mph 93% 0 in 12.00 W/m2
06:29 67.1 °F 65 °F 29.98 in NW 2.3 mph 1.8 mph 93% 0 in 16.00 W/m2
06:34 67.1 °F 65 °F 29.98 in NW 3.5 mph 1.5 mph 93% 0 in 19.00 W/m2
06:39 67.3 °F 65.2 °F 29.98 in NNW 3.5 mph 3 mph 93% 0 in 25.00 W/m2
06:44 67.5 °F 65.4 °F 29.98 in NW 3.5 mph 1.8 mph 93% 0 in 30.00 W/m2
06:49 67.5 °F 65.4 °F 29.98 in NW 2.3 mph 1.6 mph 93% 0 in 35.00 W/m2
06:54 67.5 °F 65.4 °F 29.98 in NW 2.3 mph 1.2 mph 93% 0 in 40.00 W/m2
06:59 67.6 °F 65.5 °F 29.98 in NNW 3.5 mph 1.3 mph 93% 0 in 46.00 W/m2
Bourbonnais, Illinois, USA
Compliments of Weather Underground - 2 mb